ExpreSS Rome — A8YC2 — position and weather

sailwx.info

Track history (hours):
 
Tides and Currents Weather Stations Pressure Air Temp Water Temp Dewpoint Dewpoint Depression Visibility Wind Speed Wind Dir Waves Ship Positions

ExpreSS Rome

Last reported at 2018-Apr-26 05:14 UTC. Time now 2018-Apr-26 11:25 UTC.
Position N 35°57' W 005°33'.

Length 349 m; draft 14.8 m.

Type: Ship (hazmat cat A). MMSI: 636015019.

Date/timePositionNaut miles runAvg speedWind from/ knotsBaromVisibWave heightAir tempDewpointWater temp
2018-Apr-26 05:14N 35°57' W 005°33'1 4.6
2018-Apr-26 05:00N 35°58' W 005°32'2 4.7
2018-Apr-26 04:29N 35°59' W 005°29'611.5
2018-Apr-26 04:00N 36°01' W 005°23'612.0
2018-Apr-26 03:30N 36°02' W 005°16'713.5
2018-Apr-26 03:00N 36°03' W 005°07'  
2018-Apr-23 19:12N 37°21' E 011°22'314.8
2018-Apr-23 19:00N 37°20' E 011°25'714.7
2018-Apr-23 18:30N 37°17' E 011°34'714.8
2018-Apr-23 18:00N 37°14' E 011°42'814.8
2018-Apr-23 17:29N 37°11' E 011°51'714.6
2018-Apr-23 16:59N 37°08' E 011°59'714.4
2018-Apr-23 16:30N 37°06' E 012°07'714.3
2018-Apr-23 16:00N 37°04' E 012°16'714.3
2018-Apr-23 15:30N 37°01' E 012°25'714.4
2018-Apr-23 15:01N 36°59' E 012°33'714.6
2018-Apr-23 14:30N 36°57' E 012°42'714.6
2018-Apr-23 14:01N 36°54' E 012°50'714.7
2018-Apr-23 13:30N 36°52' E 012°59'815.0
2018-Apr-23 13:00N 36°50' E 013°08'815.1
2018-Apr-23 12:30N 36°47' E 013°17'715.1
2018-Apr-23 12:00N 36°45' E 013°26'715.0
2018-Apr-23 11:30N 36°42' E 013°35'714.6
2018-Apr-23 11:01N 36°40' E 013°43'714.6
2018-Apr-23 10:31N 36°38' E 013°52'714.5
2018-Apr-23 10:00N 36°36' E 014°00'714.3
2018-Apr-23 09:30N 36°33' E 014°09'714.2
2018-Apr-23 09:00N 36°31' E 014°17'714.1
2018-Apr-23 08:30N 36°29' E 014°26'714.1
2018-Apr-23 08:00N 36°26' E 014°34'714.0
2018-Apr-23 07:31N 36°25' E 014°42'713.9
2018-Apr-23 07:00N 36°24' E 014°51'  
2018-Apr-20 03:09N 29°50' E 032°34'0 0.3
2018-Apr-20 02:52N 29°50' E 032°34'0 0.2
2018-Apr-20 02:28N 29°50' E 032°34'0 0.0
2018-Apr-20 01:58N 29°50' E 032°34'0 0.0
2018-Apr-20 01:28N 29°50' E 032°34'  
Track history (hours):
 
Tides and Currents Weather Stations Pressure Air Temp Water Temp Dewpoint Dewpoint Depression Visibility Wind Speed Wind Dir Waves Ship Positions

ExpreSS Rome

Last reported at 2018-Apr-26 05:14 UTC. Time now 2018-Apr-26 11:25 UTC.
Position N 35°57' W 005°33'.

Length 349 m; draft 14.8 m.

Type: Ship (hazmat cat A). MMSI: 636015019.

Date/timePositionNaut miles runAvg speedWind from/ knotsBaromVisibWave heightAir tempDewpointWater temp
2018-Apr-26 05:14N 35°57' W 005°33'1 4.6
2018-Apr-26 05:00N 35°58' W 005°32'2 4.7
2018-Apr-26 04:29N 35°59' W 005°29'611.5
2018-Apr-26 04:00N 36°01' W 005°23'612.0
2018-Apr-26 03:30N 36°02' W 005°16'713.5
2018-Apr-26 03:00N 36°03' W 005°07'  
2018-Apr-23 19:12N 37°21' E 011°22'314.8
2018-Apr-23 19:00N 37°20' E 011°25'714.7
2018-Apr-23 18:30N 37°17' E 011°34'714.8
2018-Apr-23 18:00N 37°14' E 011°42'814.8
2018-Apr-23 17:29N 37°11' E 011°51'714.6
2018-Apr-23 16:59N 37°08' E 011°59'714.4
2018-Apr-23 16:30N 37°06' E 012°07'714.3
2018-Apr-23 16:00N 37°04' E 012°16'714.3
2018-Apr-23 15:30N 37°01' E 012°25'714.4
2018-Apr-23 15:01N 36°59' E 012°33'714.6
2018-Apr-23 14:30N 36°57' E 012°42'714.6
2018-Apr-23 14:01N 36°54' E 012°50'714.7
2018-Apr-23 13:30N 36°52' E 012°59'815.0
2018-Apr-23 13:00N 36°50' E 013°08'815.1
2018-Apr-23 12:30N 36°47' E 013°17'715.1
2018-Apr-23 12:00N 36°45' E 013°26'715.0
2018-Apr-23 11:30N 36°42' E 013°35'714.6
2018-Apr-23 11:01N 36°40' E 013°43'714.6
2018-Apr-23 10:31N 36°38' E 013°52'714.5
2018-Apr-23 10:00N 36°36' E 014°00'714.3
2018-Apr-23 09:30N 36°33' E 014°09'714.2
2018-Apr-23 09:00N 36°31' E 014°17'714.1
2018-Apr-23 08:30N 36°29' E 014°26'714.1
2018-Apr-23 08:00N 36°26' E 014°34'714.0
2018-Apr-23 07:31N 36°25' E 014°42'713.9
2018-Apr-23 07:00N 36°24' E 014°51'  
2018-Apr-20 03:09N 29°50' E 032°34'0 0.3
2018-Apr-20 02:52N 29°50' E 032°34'0 0.2
2018-Apr-20 02:28N 29°50' E 032°34'0 0.0
2018-Apr-20 01:58N 29°50' E 032°34'0 0.0
2018-Apr-20 01:28N 29°50' E 032°34'  

Dump ship's entire track history